Time;durP1;ratioP1;P1;durP2;ratioP2;P2;SDS_P1;SDS_P2;PMS_P1;PMS_P2;Temp;Humidity;BMP_temperature;BMP_pressure;BME280_temperature;BME280_humidity;BME280_pressure;Samples;Min_cycle;Max_cycle;Signal;HPM_P1;HPM_P2
2022/12/22 03:27:19;;;;;;;5.30;2.30;;;11.70;99.90;;;;;;4926125;29;20056;-88
2022/12/22 03:29:46;;;;;;;3.58;2.20;;;11.70;99.90;;;;;;4931340;29;20039;-88
2022/12/22 03:32:14;;;;;;;3.83;2.42;;;11.70;99.90;;;;;;4933894;29;20048;-88
2022/12/22 03:34:41;;;;;;;4.40;2.25;;;11.70;99.90;;;;;;4925530;29;20039;-87
2022/12/22 03:37:07;;;;;;;4.35;2.40;;;11.70;99.90;;;;;;4944812;28;20054;-88
2022/12/22 03:39:35;;;;;;;6.03;2.20;;;11.70;99.90;;;;;;4926611;29;20478;-88
2022/12/22 03:47:32;;;;;;;3.63;2.00;;;11.70;99.90;;;;;;4931130;29;20061;-88
2022/12/22 03:49:59;;;;;;;3.10;1.60;;;11.70;99.90;;;;;;4925183;29;20054;-88
2022/12/22 03:52:26;;;;;;;3.17;1.83;;;11.70;99.90;;;;;;4922770;29;20061;-88
2022/12/22 03:54:53;;;;;;;2.95;1.50;;;11.70;99.90;;;;;;4929183;29;20043;-88
2022/12/22 03:57:20;;;;;;;2.85;1.60;;;11.70;99.90;;;;;;4935936;29;20054;-88
2022/12/22 03:59:47;;;;;;;3.70;1.75;;;11.70;99.90;;;;;;4929708;29;20052;-88
2022/12/22 04:02:14;;;;;;;3.92;1.50;;;11.70;99.90;;;;;;4924946;28;20410;-88
2022/12/22 04:04:42;;;;;;;2.45;1.15;;;11.70;99.90;;;;;;4928660;29;20146;-88
2022/12/22 04:07:09;;;;;;;2.90;1.40;;;11.70;99.90;;;;;;4937825;29;20119;-87
2022/12/22 04:12:52;;;;;;;4.13;1.50;;;11.70;99.90;;;;;;4936461;29;20051;-88
2022/12/22 04:15:08;;;;;;;3.05;1.30;;;11.80;99.90;;;;;;4930396;29;20047;-88
2022/12/22 04:17:35;;;;;;;3.30;1.38;;;11.80;99.90;;;;;;4940281;29;20050;-87
2022/12/22 04:20:03;;;;;;;3.53;1.35;;;11.80;99.90;;;;;;4924669;28;20040;-87
2022/12/22 04:22:30;;;;;;;2.80;1.17;;;11.80;99.90;;;;;;4928822;29;20115;-88
2022/12/22 04:24:57;;;;;;;2.63;1.33;;;11.80;99.90;;;;;;4933940;29;20043;-88
2022/12/22 04:27:24;;;;;;;3.95;1.42;;;11.80;99.90;;;;;;4933562;29;20509;-88
2022/12/22 04:29:51;;;;;;;2.97;1.30;;;11.80;99.90;;;;;;4927284;29;20050;-88
2022/12/22 04:32:18;;;;;;;3.40;1.52;;;11.80;99.90;;;;;;4923160;29;20506;-88
2022/12/22 04:34:45;;;;;;;3.17;1.17;;;11.80;99.90;;;;;;4936622;29;20043;-88
2022/12/22 04:37:13;;;;;;;3.47;1.30;;;11.80;99.90;;;;;;4926368;28;20055;-88
2022/12/22 04:39:40;;;;;;;2.78;1.25;;;11.80;99.90;;;;;;4922089;29;20050;-89
2022/12/22 04:42:07;;;;;;;2.67;1.30;;;11.80;99.90;;;;;;4927316;29;20039;-88
2022/12/22 04:44:34;;;;;;;3.95;1.13;;;11.80;99.90;;;;;;4923395;29;20126;-88
2022/12/22 04:47:01;;;;;;;5.05;1.27;;;11.80;99.90;;;;;;4923155;29;20385;-88
2022/12/22 04:49:28;;;;;;;4.32;1.23;;;11.90;99.90;;;;;;4924334;29;20043;-88
2022/12/22 04:51:54;;;;;;;2.85;1.30;;;11.90;99.90;;;;;;4933358;28;20391;-88
2022/12/22 04:54:23;;;;;;;2.30;1.30;;;11.90;99.90;;;;;;4921800;29;20048;-88
2022/12/22 04:56:50;;;;;;;4.05;1.33;;;11.90;99.90;;;;;;4924613;29;20039;-91
2022/12/22 04:59:17;;;;;;;3.40;1.23;;;11.90;99.90;;;;;;4923679;29;20047;-85
2022/12/22 05:01:44;;;;;;;2.25;1.05;;;11.90;99.90;;;;;;4923182;29;20035;-88
2022/12/22 05:04:11;;;;;;;2.45;1.00;;;11.90;99.90;;;;;;4939600;29;20122;-86
2022/12/22 05:06:38;;;;;;;3.10;1.40;;;11.90;99.90;;;;;;4922433;29;20047;-87
2022/12/22 05:09:05;;;;;;;4.20;1.20;;;11.90;99.90;;;;;;4919322;29;20047;-88
2022/12/22 05:11:34;;;;;;;4.25;1.90;;;12.00;99.90;;;;;;4924851;29;20466;-86
2022/12/22 05:14:01;;;;;;;3.92;1.60;;;11.90;99.90;;;;;;4932899;29;20074;-86
2022/12/22 05:16:28;;;;;;;3.15;1.65;;;11.90;99.90;;;;;;4923068;29;20040;-86
2022/12/22 05:18:55;;;;;;;3.97;1.52;;;11.90;99.90;;;;;;4923531;29;20409;-86
2022/12/22 05:21:23;;;;;;;4.85;1.90;;;11.90;99.90;;;;;;4922959;29;20054;-87
2022/12/22 05:23:50;;;;;;;3.25;1.60;;;11.90;99.90;;;;;;4928487;29;20131;-87
2022/12/22 05:26:18;;;;;;;3.53;1.70;;;11.90;99.90;;;;;;4922270;29;20449;-85
2022/12/22 05:28:47;;;;;;;3.50;1.90;;;11.90;99.90;;;;;;4942228;23;20409;-87
2022/12/22 05:31:16;;;;;;;3.10;1.92;;;11.90;99.90;;;;;;4928949;29;20043;-92
2022/12/22 05:33:43;;;;;;;4.10;2.30;;;11.90;99.90;;;;;;4936767;29;20075;-83
2022/12/22 05:36:10;;;;;;;4.45;2.63;;;11.90;99.90;;;;;;4930415;29;20116;-87
2022/12/22 05:38:37;;;;;;;5.07;2.30;;;11.90;99.90;;;;;;4919344;29;20052;-87
2022/12/22 05:41:04;;;;;;;3.85;2.47;;;12.00;99.90;;;;;;4923355;29;20095;-88
2022/12/22 05:43:31;;;;;;;4.00;2.55;;;11.90;99.90;;;;;;4921057;29;20048;-89
2022/12/22 05:46:03;;;;;;;7.38;2.60;;;11.90;99.90;;;;;;4927989;29;20042;-87
2022/12/22 05:48:30;;;;;;;5.05;2.70;;;11.90;99.90;;;;;;4929012;29;20044;-90
2022/12/22 05:50:57;;;;;;;3.97;2.50;;;11.90;99.90;;;;;;4917706;29;20058;-87
2022/12/22 05:53:24;;;;;;;4.22;2.45;;;11.90;99.90;;;;;;4921224;29;20425;-87
2022/12/22 05:55:52;;;;;;;4.03;2.28;;;11.90;99.90;;;;;;4922390;29;20405;-88
2022/12/22 05:58:19;;;;;;;3.97;2.25;;;11.90;99.90;;;;;;4925954;29;20154;-87
2022/12/22 06:00:46;;;;;;;4.97;2.50;;;11.90;99.90;;;;;;4929288;29;20047;-88
2022/12/22 06:03:14;;;;;;;3.58;2.13;;;11.90;99.90;;;;;;4932573;29;20043;-89
2022/12/22 06:05:41;;;;;;;3.58;2.17;;;11.90;99.90;;;;;;4929863;29;20044;-89
2022/12/22 06:08:08;;;;;;;5.07;2.60;;;11.90;99.90;;;;;;4930376;29;20051;-88
2022/12/22 06:10:35;;;;;;;6.13;2.38;;;11.90;99.90;;;;;;4925451;29;20138;-88
2022/12/22 06:13:02;;;;;;;5.22;2.53;;;11.90;99.90;;;;;;4936726;29;20509;-81
2022/12/22 06:15:28;;;;;;;4.40;2.72;;;11.90;99.90;;;;;;4939712;29;20040;-82
2022/12/22 06:17:55;;;;;;;4.65;3.22;;;11.90;99.90;;;;;;4933601;29;20048;-81
2022/12/22 06:20:28;;;;;;;5.93;3.15;;;11.90;99.90;;;;;;4939256;29;20378;-82
2022/12/22 06:22:55;;;;;;;6.88;3.58;;;11.90;99.90;;;;;;4934810;29;20075;-82
2022/12/22 06:25:22;;;;;;;5.90;4.00;;;11.90;99.90;;;;;;4928261;29;20044;-79
2022/12/22 06:27:49;;;;;;;9.05;3.75;;;11.90;99.90;;;;;;4948642;28;20126;-80
2022/12/22 06:30:16;;;;;;;6.90;3.95;;;11.90;99.90;;;;;;4928975;29;20055;-81
2022/12/22 06:32:43;;;;;;;4.85;3.05;;;11.90;99.90;;;;;;4929854;29;20051;-81
2022/12/22 06:35:10;;;;;;;6.53;3.15;;;11.90;99.90;;;;;;4935163;29;20043;-82
2022/12/22 06:37:38;;;;;;;6.25;2.78;;;11.90;99.90;;;;;;4929649;29;20052;-81
2022/12/22 06:40:07;;;;;;;5.55;3.10;;;11.90;99.90;;;;;;4929784;29;20040;-82
2022/12/22 06:45:19;;;;;;;5.45;3.10;;;11.90;99.90;;;;;;4934296;29;20043;-82
2022/12/22 06:47:45;;;;;;;9.98;3.85;;;11.90;99.90;;;;;;4934660;29;20513;-82
2022/12/22 06:50:12;;;;;;;5.10;2.70;;;11.90;99.90;;;;;;4934861;29;20052;-82
2022/12/22 06:52:41;;;;;;;6.38;2.78;;;11.90;99.90;;;;;;4932912;29;20058;-82
2022/12/22 06:55:08;;;;;;;6.35;3.13;;;11.90;99.90;;;;;;4931743;29;20147;-82
2022/12/22 06:57:35;;;;;;;6.68;3.60;;;11.90;99.90;;;;;;4922576;29;20066;-82
2022/12/22 07:00:03;;;;;;;5.93;3.38;;;11.90;99.90;;;;;;4930465;29;20071;-83
2022/12/22 07:02:30;;;;;;;6.68;3.50;;;11.90;99.90;;;;;;4919463;29;20044;-82
2022/12/22 07:04:57;;;;;;;8.05;4.13;;;11.90;99.90;;;;;;4923263;29;20506;-82
2022/12/22 07:07:24;;;;;;;5.60;3.97;;;11.90;99.90;;;;;;4934229;29;20489;-83
2022/12/22 07:09:54;;;;;;;6.35;3.92;;;11.90;99.90;;;;;;4932077;29;20115;-82
2022/12/22 07:12:21;;;;;;;9.25;4.70;;;11.90;99.90;;;;;;4929909;29;20130;-83
2022/12/22 07:14:48;;;;;;;8.05;5.35;;;11.90;99.90;;;;;;4928817;29;20048;-82
2022/12/22 07:17:14;;;;;;;7.88;5.45;;;11.90;99.90;;;;;;4926872;29;20550;-82
2022/12/22 07:19:41;;;;;;;8.98;5.78;;;11.90;99.90;;;;;;4928262;29;21000;-82
2022/12/22 07:22:08;;;;;;;11.95;5.97;;;11.90;99.90;;;;;;4934401;29;20416;-83
2022/12/22 07:24:35;;;;;;;8.20;6.10;;;11.90;99.90;;;;;;4925697;29;20036;-83
2022/12/22 07:27:03;;;;;;;11.02;6.95;;;11.90;99.90;;;;;;4922360;28;20036;-83
2022/12/22 07:29:30;;;;;;;12.00;7.80;;;12.00;99.90;;;;;;4927299;29;20055;-82
2022/12/22 07:31:57;;;;;;;18.02;8.30;;;11.90;99.90;;;;;;4927928;29;20052;-83
2022/12/22 07:34:24;;;;;;;15.93;8.65;;;11.90;99.90;;;;;;4927126;29;20047;-83
2022/12/22 07:36:51;;;;;;;12.35;8.68;;;11.90;99.90;;;;;;4928405;29;20119;-83
2022/12/22 07:39:18;;;;;;;13.82;9.10;;;11.90;99.90;;;;;;4931157;29;20052;-83
2022/12/22 07:44:30;;;;;;;13.02;9.10;;;11.90;99.90;;;;;;4928177;29;20442;-83
2022/12/22 07:46:57;;;;;;;14.10;9.63;;;11.90;99.90;;;;;;4916390;29;20397;-82
2022/12/22 07:52:09;;;;;;;15.07;10.65;;;11.90;99.90;;;;;;4916065;29;20056;-82
2022/12/22 07:54:36;;;;;;;18.40;12.75;;;11.90;99.90;;;;;;4923975;29;20032;-82
2022/12/22 07:57:03;;;;;;;18.10;11.63;;;12.00;99.90;;;;;;4927517;29;20036;-82
2022/12/22 07:59:31;;;;;;;19.23;13.57;;;12.00;99.90;;;;;;4921605;29;20406;-82
2022/12/22 08:01:58;;;;;;;20.10;14.43;;;12.00;99.90;;;;;;4924502;29;20054;-82
2022/12/22 08:04:25;;;;;;;22.23;14.60;;;12.00;99.90;;;;;;4929063;29;20071;-80
2022/12/22 08:06:52;;;;;;;25.17;15.45;;;12.00;99.90;;;;;;4921204;29;20139;-81
2022/12/22 08:09:20;;;;;;;24.80;15.32;;;11.90;99.90;;;;;;4921570;29;20048;-81
2022/12/22 08:11:48;;;;;;;30.83;17.17;;;11.90;99.90;;;;;;4929378;29;20044;-82
2022/12/22 08:14:15;;;;;;;30.63;17.88;;;11.90;99.90;;;;;;4926322;28;20085;-83
2022/12/22 08:16:43;;;;;;;32.15;18.58;;;11.90;99.90;;;;;;4920685;29;20051;-83
2022/12/22 08:19:10;;;;;;;31.67;17.88;;;12.10;99.90;;;;;;4921118;29;20044;-82
2022/12/22 08:21:37;;;;;;;36.63;20.15;;;11.90;99.90;;;;;;4920700;29;20518;-79
2022/12/22 08:24:05;;;;;;;34.13;19.45;;;11.90;99.90;;;;;;4922145;29;20050;-79
2022/12/22 08:26:36;;;;;;;31.42;19.60;;;12.00;99.90;;;;;;4919822;29;20047;-81
2022/12/22 08:29:04;;;;;;;;;;;12.00;99.90;;;;;;4924245;29;20048;-81
2022/12/22 08:31:31;;;;;;;81.05;21.65;;;12.00;99.90;;;;;;4922160;29;19929;-79
2022/12/22 08:34:02;;;;;;;56.47;20.00;;;12.00;99.90;;;;;;4918244;29;20142;-80
2022/12/22 08:36:30;;;;;;;40.25;17.70;;;12.00;99.90;;;;;;4921198;29;20054;-80
2022/12/22 08:38:57;;;;;;;27.83;15.00;;;12.00;99.90;;;;;;4923978;29;20047;-80
2022/12/22 08:44:05;;;;;;;68.32;19.73;;;11.90;99.90;;;;;;4919050;29;20060;-80
2022/12/22 08:46:32;;;;;;;183.30;30.65;;;12.00;99.90;;;;;;4918317;29;20055;-81
2022/12/22 08:49:00;;;;;;;48.03;17.77;;;12.00;99.90;;;;;;4923677;29;20044;-80
2022/12/22 08:51:27;;;;;;;33.55;16.88;;;12.00;99.90;;;;;;4920857;29;20051;-80
2022/12/22 08:53:54;;;;;;;28.75;16.25;;;11.90;99.90;;;;;;4922098;29;20526;-80
2022/12/22 08:56:21;;;;;;;27.48;15.70;;;11.90;99.90;;;;;;4923939;29;20044;-86
2022/12/22 08:58:47;;;;;;;32.00;16.00;;;12.00;99.90;;;;;;4923564;29;20048;-79
2022/12/22 09:01:18;;;;;;;32.03;17.27;;;11.90;99.90;;;;;;4925572;29;20102;-79
2022/12/22 09:03:48;;;;;;;28.70;15.88;;;11.90;99.90;;;;;;4922122;29;20050;-79
2022/12/22 09:06:17;;;;;;;37.92;17.95;;;12.00;99.90;;;;;;4928513;29;20052;-79
2022/12/22 09:08:44;;;;;;;33.00;17.17;;;12.00;99.90;;;;;;4924317;29;20422;-79
2022/12/22 09:11:11;;;;;;;31.67;16.92;;;11.90;99.90;;;;;;4925005;29;20040;-79
2022/12/22 09:13:37;;;;;;;34.40;18.80;;;11.90;99.90;;;;;;4922311;29;20044;-79
2022/12/22 09:16:05;;;;;;;34.35;18.50;;;11.90;99.90;;;;;;4920801;29;20058;-79
2022/12/22 09:18:32;;;;;;;34.92;17.83;;;11.90;99.90;;;;;;4926800;29;20043;-79
2022/12/22 09:20:59;;;;;;;31.02;16.83;;;11.90;99.90;;;;;;4928871;29;20127;-79
2022/12/22 09:23:30;;;;;;;31.75;17.98;;;11.90;99.90;;;;;;4927860;29;20056;-79
2022/12/22 09:25:56;;;;;;;223.23;38.73;;;11.90;99.90;;;;;;4927134;29;20056;-80
2022/12/22 09:28:23;;;;;;;214.15;39.28;;;11.90;99.90;;;;;;4928771;29;20282;-80
2022/12/22 09:30:51;;;;;;;111.25;25.10;;;12.00;99.90;;;;;;4920573;29;20050;-79
2022/12/22 09:33:18;;;;;;;75.32;20.23;;;12.00;99.90;;;;;;4922904;29;20124;-79
2022/12/22 09:35:45;;;;;;;54.35;18.50;;;12.00;99.90;;;;;;4922171;29;20117;-80
2022/12/22 09:38:11;;;;;;;34.33;17.75;;;12.00;99.90;;;;;;4935306;28;20103;-79
2022/12/22 09:40:40;;;;;;;44.05;16.77;;;12.00;99.90;;;;;;4926663;29;20052;-79
2022/12/22 09:43:07;;;;;;;38.28;17.92;;;12.00;99.90;;;;;;4927878;29;20140;-79
2022/12/22 09:45:34;;;;;;;37.53;19.00;;;12.00;99.90;;;;;;4931142;29;20048;-79
2022/12/22 09:48:01;;;;;;;40.45;20.75;;;12.00;99.90;;;;;;4931647;28;20047;-80
2022/12/22 09:50:28;;;;;;;41.47;20.65;;;12.00;99.90;;;;;;4925509;29;20119;-79
2022/12/22 09:52:59;;;;;;;43.70;22.35;;;12.00;99.90;;;;;;4923262;29;20052;-79
2022/12/22 09:55:38;;;;;;;52.88;24.95;;;12.00;99.90;;;;;;4928746;29;20130;-84
2022/12/22 09:58:17;;;;;;;60.20;30.27;;;12.00;99.90;;;;;;4929813;29;20055;-80
2022/12/22 10:00:44;;;;;;;57.33;28.83;;;12.00;99.90;;;;;;4921834;29;20115;-79
2022/12/22 10:03:17;;;;;;;50.15;26.85;;;12.00;99.90;;;;;;4925068;29;20498;-79
2022/12/22 10:05:48;;;;;;;54.50;27.40;;;12.00;99.90;;;;;;4931753;29;20078;-80
2022/12/22 10:08:19;;;;;;;52.03;28.00;;;12.00;99.90;;;;;;4926820;29;20066;-79
2022/12/22 10:10:45;;;;;;;53.00;27.50;;;12.00;99.90;;;;;;4921551;29;20054;-80
2022/12/22 10:13:18;;;;;;;48.35;26.08;;;12.00;99.90;;;;;;4921636;29;20044;-79
2022/12/22 10:15:45;;;;;;;47.05;26.65;;;12.00;99.90;;;;;;4921373;29;20052;-80
2022/12/22 10:18:14;;;;;;;51.17;28.67;;;12.00;99.90;;;;;;4936096;28;20049;-80
2022/12/22 10:20:41;;;;;;;37.33;23.50;;;12.00;99.90;;;;;;4918077;29;20036;-79
2022/12/22 10:23:16;;;;;;;36.92;21.35;;;11.90;99.90;;;;;;4921922;29;20040;-79
2022/12/22 10:25:50;;;;;;;34.33;21.08;;;11.90;99.90;;;;;;4928626;29;20694;-80
2022/12/22 10:28:21;;;;;;;34.95;21.10;;;11.90;99.90;;;;;;4931872;29;20047;-80
2022/12/22 10:30:48;;;;;;;35.70;21.40;;;11.90;99.90;;;;;;4930559;29;20048;-80
2022/12/22 10:33:17;;;;;;;34.78;21.13;;;11.90;99.90;;;;;;4925191;29;20062;-80
2022/12/22 10:35:47;;;;;;;37.85;22.05;;;11.90;99.90;;;;;;4930644;29;20100;-80
2022/12/22 10:38:25;;;;;;;36.45;21.58;;;11.90;99.90;;;;;;4922228;29;20048;-80
2022/12/22 10:40:55;;;;;;;40.53;23.35;;;11.90;99.90;;;;;;4922956;29;20046;-79
2022/12/22 10:43:24;;;;;;;36.70;20.85;;;11.80;99.90;;;;;;4931886;29;20126;-79
2022/12/22 10:45:52;;;;;;;39.13;21.90;;;11.80;99.90;;;;;;4926373;29;20119;-79
2022/12/22 10:48:26;;;;;;;40.88;21.52;;;11.80;99.90;;;;;;4915912;29;20036;-80
2022/12/22 10:50:53;;;;;;;34.47;19.63;;;11.90;99.90;;;;;;4917672;29;20054;-80
2022/12/22 10:53:20;;;;;;;33.53;19.00;;;11.90;99.90;;;;;;4939799;29;20058;-79
2022/12/22 10:55:47;;;;;;;34.65;20.13;;;11.80;99.90;;;;;;4942455;29;20048;-80
2022/12/22 10:58:16;;;;;;;33.95;20.10;;;11.80;99.90;;;;;;4926549;29;20065;-79
2022/12/22 11:00:45;;;;;;;34.88;20.98;;;11.90;99.90;;;;;;4934172;29;20048;-80
2022/12/22 11:03:13;;;;;;;36.45;22.75;;;11.90;99.90;;;;;;4936022;29;20587;-79
2022/12/22 11:05:41;;;;;;;41.58;23.80;;;11.90;99.90;;;;;;4924595;29;20260;-81
2022/12/22 11:08:16;;;;;;;46.33;24.95;;;11.90;99.90;;;;;;4931142;29;20498;-83
2022/12/22 11:10:49;;;;;;;38.70;23.02;;;11.90;99.90;;;;;;4925570;29;20044;-81
2022/12/22 11:13:28;;;;;;;38.40;21.25;;;11.90;99.90;;;;;;4927143;29;20051;-81
2022/12/22 11:16:01;;;;;;;39.33;21.73;;;11.90;99.90;;;;;;4934093;29;20051;-81
2022/12/22 11:18:38;;;;;;;35.72;19.52;;;12.00;99.90;;;;;;4931074;29;20054;-81
2022/12/22 11:21:11;;;;;;;35.15;18.83;;;11.90;99.90;;;;;;4925636;29;20473;-81
2022/12/22 11:23:44;;;;;;;36.50;19.63;;;11.90;99.90;;;;;;4933954;29;20062;-81
2022/12/22 11:26:15;;;;;;;36.00;18.83;;;12.00;99.90;;;;;;4929903;29;20052;-81
2022/12/22 11:28:50;;;;;;;;;;;12.00;99.90;;;;;;4944756;23;20048;-80
2022/12/22 11:31:38;;;;;;;33.17;17.42;;;11.90;99.90;;;;;;4926440;29;19970;-80
2022/12/22 11:34:15;;;;;;;31.55;16.17;;;11.90;99.90;;;;;;4929547;29;20561;-80
2022/12/22 11:36:59;;;;;;;31.10;16.83;;;11.90;99.90;;;;;;4924270;29;20482;-80
2022/12/22 11:39:37;;;;;;;31.65;15.80;;;12.00;99.90;;;;;;4931893;29;20090;-80
2022/12/22 11:42:23;;;;;;;33.17;16.50;;;12.00;99.90;;;;;;4925904;29;20054;-80
2022/12/22 11:44:57;;;;;;;33.10;15.95;;;12.00;99.90;;;;;;4919753;29;20051;-83
2022/12/22 11:47:31;;;;;;;32.92;16.17;;;12.00;99.90;;;;;;4927359;29;20060;-83
2022/12/22 11:50:22;;;;;;;36.30;16.83;;;12.00;99.90;;;;;;4931864;29;20127;-83
2022/12/22 11:52:58;;;;;;;34.50;16.27;;;12.00;99.90;;;;;;4925495;29;20075;-83
2022/12/22 11:55:30;;;;;;;32.10;15.27;;;12.00;99.90;;;;;;4928301;29;20066;-82
2022/12/22 11:58:26;;;;;;;30.63;15.23;;;12.00;99.90;;;;;;4927725;29;20040;-83
2022/12/22 12:01:00;;;;;;;30.75;15.40;;;11.90;99.90;;;;;;4925084;29;20106;-83
2022/12/22 12:03:44;;;;;;;32.80;15.98;;;11.90;99.90;;;;;;4927811;29;20120;-82
2022/12/22 12:06:26;;;;;;;28.65;14.80;;;11.90;99.90;;;;;;4926604;29;20082;-82
2022/12/22 12:08:56;;;;;;;;;;;11.80;99.90;;;;;;4923969;29;20046;-82
2022/12/22 12:11:29;;;;;;;27.75;14.18;;;11.80;99.90;;;;;;4920817;29;20009;-81
2022/12/22 12:14:02;;;;;;;29.95;14.48;;;11.80;99.90;;;;;;4930346;29;20122;-82
2022/12/22 12:16:34;;;;;;;31.52;15.43;;;11.80;99.90;;;;;;4920754;29;20044;-83
2022/12/22 12:19:33;;;;;;;28.58;15.25;;;11.80;99.90;;;;;;4927064;29;20616;-84
2022/12/22 12:22:02;;;;;;;30.80;14.60;;;11.80;99.90;;;;;;4942237;29;20138;-83
2022/12/22 12:24:42;;;;;;;31.10;15.02;;;11.80;99.90;;;;;;4942362;29;20141;-84
2022/12/22 12:27:21;;;;;;;26.75;13.15;;;11.80;99.90;;;;;;4941925;29;20525;-81
2022/12/22 12:29:56;;;;;;;25.70;11.63;;;11.80;99.90;;;;;;4939045;29;20055;-83
2022/12/22 12:32:25;;;;;;;22.63;11.55;;;11.80;99.90;;;;;;4930041;29;20135;-84
2022/12/22 12:35:00;;;;;;;24.17;11.50;;;11.80;99.90;;;;;;4928397;29;20457;-85
2022/12/22 12:37:29;;;;;;;24.73;11.85;;;11.80;99.90;;;;;;4929607;29;20584;-88
2022/12/22 12:40:03;;;;;;;26.25;12.57;;;11.80;99.90;;;;;;4934415;29;20054;-93
2022/12/22 12:42:32;;;;;;;21.15;11.50;;;11.70;99.90;;;;;;4929345;29;20040;-92
2022/12/22 12:45:01;;;;;;;24.35;12.52;;;11.70;99.90;;;;;;4932319;29;20078;-93
2022/12/22 12:47:30;;;;;;;26.80;12.82;;;11.70;99.90;;;;;;4925369;29;20058;-93
2022/12/22 12:50:05;;;;;;;24.17;12.82;;;11.70;99.90;;;;;;4930202;29;20051;-92
2022/12/22 12:53:12;;;;;;;28.10;13.38;;;11.70;99.90;;;;;;4922464;29;20086;-89
2022/12/22 12:55:59;;;;;;;29.83;14.20;;;11.70;99.90;;;;;;4930043;29;20055;-88
2022/12/22 12:58:48;;;;;;;26.88;13.35;;;11.70;99.90;;;;;;4926308;29;20035;-88
2022/12/22 13:01:54;;;;;;;25.70;13.10;;;11.70;99.90;;;;;;4921818;29;20080;-88
2022/12/22 13:05:04;;;;;;;24.67;13.95;;;11.70;99.90;;;;;;4915226;29;20651;-88
2022/12/22 13:08:23;;;;;;;26.55;14.50;;;11.80;99.90;;;;;;4942767;28;20050;-85
2022/12/22 13:11:23;;;;;;;27.23;15.10;;;11.70;99.90;;;;;;4868844;29;20113;-88
2022/12/22 13:13:52;;;;;;;29.15;15.00;;;11.70;99.90;;;;;;4884070;29;20153;-88
2022/12/22 13:16:28;;;;;;;31.15;14.57;;;11.80;99.90;;;;;;4913023;29;20067;-87
2022/12/22 13:18:58;;;;;;;28.05;15.77;;;11.80;99.90;;;;;;4931874;29;20498;-88
2022/12/22 13:21:38;;;;;;;27.90;16.55;;;11.80;99.90;;;;;;4923405;29;20098;-88
2022/12/22 13:24:16;;;;;;;28.50;16.45;;;12.00;99.90;;;;;;4931024;29;20103;-88
2022/12/22 13:26:44;;;;;;;27.00;15.80;;;11.80;99.90;;;;;;4930010;29;20146;-88
2022/12/22 13:29:19;;;;;;;28.23;16.77;;;11.80;99.90;;;;;;4927618;29;20402;-88
2022/12/22 13:31:47;;;;;;;27.38;16.05;;;11.80;99.90;;;;;;4929939;29;20052;-88
2022/12/22 13:34:32;;;;;;;28.52;16.35;;;11.80;99.90;;;;;;4930176;29;20410;-88
2022/12/22 13:37:04;;;;;;;28.70;16.63;;;11.80;99.90;;;;;;4924626;29;20623;-88
2022/12/22 13:39:31;;;;;;;28.70;16.42;;;11.70;99.90;;;;;;4922857;29;20043;-88
2022/12/22 13:41:58;;;;;;;28.08;16.70;;;11.70;99.90;;;;;;4930518;29;20043;-88
2022/12/22 13:44:28;;;;;;;28.38;16.67;;;11.80;99.90;;;;;;4931501;29;20075;-84
2022/12/22 13:47:01;;;;;;;30.42;17.63;;;11.70;99.90;;;;;;4930308;29;20054;-90
2022/12/22 13:49:28;;;;;;;26.23;15.98;;;11.70;99.90;;;;;;4930954;29;20552;-88
2022/12/22 13:51:55;;;;;;;27.25;16.67;;;11.70;99.90;;;;;;4930809;29;20042;-90
2022/12/22 13:54:27;;;;;;;28.25;15.65;;;11.70;99.90;;;;;;4930435;29;20047;-84
2022/12/22 13:56:56;;;;;;;27.67;16.20;;;11.70;99.90;;;;;;4927466;29;20079;-81
2022/12/22 13:59:28;;;;;;;27.23;16.42;;;11.70;99.90;;;;;;4923952;29;20067;-82
2022/12/22 14:01:59;;;;;;;27.42;15.57;;;11.60;99.90;;;;;;4927699;29;20051;-86
2022/12/22 14:04:26;;;;;;;25.15;14.93;;;11.60;99.90;;;;;;4922778;29;20458;-86
2022/12/22 14:06:54;;;;;;;24.00;13.55;;;11.60;99.90;;;;;;4926538;29;20048;-91
2022/12/22 14:09:25;;;;;;;25.67;14.15;;;11.50;99.90;;;;;;4929616;29;20099;-86
2022/12/22 14:11:55;;;;;;;21.70;13.30;;;11.50;99.90;;;;;;4929966;29;20056;-85
2022/12/22 14:14:26;;;;;;;22.50;12.02;;;11.50;99.90;;;;;;4929887;29;20130;-85
2022/12/22 14:16:55;;;;;;;19.75;12.13;;;11.50;99.90;;;;;;4923825;29;20120;-84
2022/12/22 14:19:24;;;;;;;20.80;11.68;;;11.50;99.90;;;;;;4926640;29;20514;-84
2022/12/22 14:22:00;;;;;;;21.63;11.73;;;11.50;99.90;;;;;;4912701;29;20052;-85
2022/12/22 14:24:32;;;;;;;22.33;12.23;;;11.50;99.90;;;;;;4924326;29;20056;-85
2022/12/22 14:26:59;;;;;;;19.92;10.65;;;11.50;99.90;;;;;;4934629;29;20054;-85
2022/12/22 14:29:27;;;;;;;20.75;11.80;;;11.40;99.90;;;;;;4933921;29;20043;-85
2022/12/22 14:31:56;;;;;;;18.73;10.90;;;11.40;99.90;;;;;;4924891;29;20123;-84
2022/12/22 14:34:27;;;;;;;23.88;11.57;;;11.40;99.90;;;;;;4933677;29;20052;-85
2022/12/22 14:36:54;;;;;;;21.63;11.38;;;11.50;99.90;;;;;;4933041;29;20058;-84
2022/12/22 14:39:22;;;;;;;21.10;10.93;;;11.50;99.90;;;;;;4933432;29;20131;-85
2022/12/22 14:41:53;;;;;;;17.23;9.90;;;11.50;99.90;;;;;;4934461;29;20572;-85
2022/12/22 14:44:22;;;;;;;22.53;11.70;;;11.50;99.90;;;;;;4934911;29;20208;-84
2022/12/22 14:47:05;;;;;;;18.95;10.73;;;11.50;99.90;;;;;;4933425;29;20287;-84
2022/12/22 14:49:33;;;;;;;19.17;10.80;;;11.50;99.90;;;;;;4930351;29;20114;-85
2022/12/22 14:52:05;;;;;;;21.27;11.32;;;11.50;99.90;;;;;;4927255;29;20052;-83
2022/12/22 14:54:32;;;;;;;22.95;11.48;;;11.50;99.90;;;;;;4915626;29;20066;-85
2022/12/22 14:57:05;;;;;;;21.40;11.25;;;11.50;99.90;;;;;;4921649;29;20082;-85
2022/12/22 14:59:32;;;;;;;24.50;11.23;;;11.50;99.90;;;;;;4934067;29;20047;-86
2022/12/22 15:02:01;;;;;;;19.13;10.95;;;11.50;99.90;;;;;;4919492;29;20467;-86
2022/12/22 15:04:28;;;;;;;21.30;11.45;;;11.50;99.90;;;;;;4920227;29;20058;-86
2022/12/22 15:07:05;;;;;;;20.98;11.15;;;11.50;99.90;;;;;;4930771;29;20067;-85
2022/12/22 15:09:32;;;;;;;17.27;10.57;;;11.60;99.90;;;;;;4927911;29;20074;-86
2022/12/22 15:12:06;;;;;;;24.52;11.90;;;11.50;99.90;;;;;;4930328;29;20047;-86
2022/12/22 15:14:46;;;;;;;22.08;11.63;;;11.40;99.90;;;;;;4932969;29;20055;-85
2022/12/22 15:17:20;;;;;;;18.90;11.63;;;11.40;99.90;;;;;;4933145;29;20110;-84
2022/12/22 15:19:47;;;;;;;22.63;12.52;;;11.40;99.90;;;;;;4928905;29;20120;-86
2022/12/22 15:22:14;;;;;;;22.00;12.90;;;11.40;99.90;;;;;;4921811;29;20048;-81
2022/12/22 15:24:41;;;;;;;22.17;12.57;;;11.40;99.90;;;;;;4921045;29;20039;-86
2022/12/22 15:27:09;;;;;;;21.63;12.70;;;11.40;99.90;;;;;;4930175;29;20050;-84
2022/12/22 15:29:36;;;;;;;20.85;12.93;;;11.40;99.90;;;;;;4933643;29;20126;-84
2022/12/22 15:32:03;;;;;;;23.60;13.90;;;11.40;99.90;;;;;;4933350;29;20074;-76
2022/12/22 15:34:31;;;;;;;25.98;13.70;;;11.40;99.90;;;;;;4930597;29;20407;-79
2022/12/22 15:36:59;;;;;;;26.88;14.88;;;11.30;99.90;;;;;;4924318;29;20466;-81
2022/12/22 15:39:26;;;;;;;24.90;13.75;;;11.30;99.90;;;;;;4931580;29;20035;-80
2022/12/22 15:41:53;;;;;;;27.08;14.38;;;11.30;99.90;;;;;;4928832;29;20039;-80
2022/12/22 15:44:22;;;;;;;27.83;15.20;;;11.30;99.90;;;;;;4926759;29;20067;-80
2022/12/22 15:46:54;;;;;;;29.83;15.57;;;11.30;99.90;;;;;;4913867;29;20114;-78
2022/12/22 15:49:24;;;;;;;26.67;15.35;;;11.30;99.90;;;;;;4928426;29;20165;-79
2022/12/22 15:51:54;;;;;;;27.60;15.23;;;11.30;99.90;;;;;;4919060;29;20044;-79
2022/12/22 15:54:21;;;;;;;26.80;15.25;;;11.30;99.90;;;;;;4930133;29;20046;-79
2022/12/22 15:56:50;;;;;;;27.77;14.18;;;11.40;99.90;;;;;;4921866;29;20626;-79
2022/12/22 15:59:19;;;;;;;25.10;13.98;;;11.30;99.90;;;;;;4921703;29;20419;-78
2022/12/22 16:01:49;;;;;;;28.23;13.95;;;11.30;99.90;;;;;;4927262;29;20422;-79
2022/12/22 16:04:16;;;;;;;23.88;14.57;;;11.30;99.90;;;;;;4931544;29;20074;-79
2022/12/22 16:06:43;;;;;;;25.48;14.95;;;11.30;99.90;;;;;;4929643;29;20050;-78
2022/12/22 16:09:19;;;;;;;30.27;16.60;;;11.20;99.90;;;;;;4926727;29;20039;-78
2022/12/22 16:11:46;;;;;;;30.73;15.85;;;11.20;99.90;;;;;;4925823;29;20502;-79
2022/12/22 16:14:13;;;;;;;28.80;16.42;;;11.20;99.90;;;;;;4918680;29;20052;-79
2022/12/22 16:16:40;;;;;;;28.63;16.45;;;11.20;99.90;;;;;;4929283;29;20063;-79
2022/12/22 16:19:12;;;;;;;28.38;16.33;;;11.20;99.90;;;;;;4926165;29;20047;-79
2022/12/22 16:21:41;;;;;;;;;;;11.30;99.90;;;;;;4928613;29;20071;-77
2022/12/22 16:24:24;;;;;;;29.00;16.25;;;11.30;99.90;;;;;;4930832;29;19970;-79
2022/12/22 16:26:51;;;;;;;26.92;15.35;;;11.30;99.90;;;;;;4927546;29;20114;-79
2022/12/22 16:29:18;;;;;;;27.75;15.60;;;11.30;99.90;;;;;;4927418;29;20051;-80
2022/12/22 16:31:45;;;;;;;26.77;15.00;;;11.40;99.90;;;;;;4931304;29;20130;-79
2022/12/22 16:34:13;;;;;;;26.85;15.38;;;11.30;99.90;;;;;;4927599;29;20055;-78